DLBO2: Little Beaver nr Duncan

Data processed at Fri May 24 2019 23:50


All information presented herein is the property of the government of the United States of America and may be revised or deleted at any time without prior notice.
Dissemination of this information without the expressed written consent of the Public Affairs Office, Tulsa District U.S. Army Corps of Engineers is strictly prohibited.
These data are gathered electronically and, as presented, have not undergone any form of quality control. These data are not guaranteed to be valid or correct.
Go to home page.
Go to station list.
Go to home page.

Downstream station:


Previous Day
Next Day
Current Day
    
SHEF ID:       DLBO2     Little Beaver Creek near Duncan,
STATION TYPE:  

               PRECIP     STAGE  STAGE(2)  RIV-FLOW  BAT-LOAD
                   in        ft        ft       cfs      volt
              Ccp-Rev   Ccp-Rev   Ccp-Rev   Ccp-Rev   Ccp-Rev
(US/Central)
05/24 00:00      0.00      9.55      ----       136     12.65
05/24 01:00      0.00      9.54      ----       135     12.65
05/24 02:00      0.00      9.51      ----       133     12.65
05/24 03:00      0.00      9.49      ----       131     12.65
05/24 04:00      0.00      9.52      ----       133     12.65
05/24 05:00      0.00      9.53      ----       134     12.60
05/24 06:00      0.00      9.51      ----       133     12.60
05/24 07:00      0.00      9.46      ----       128     12.60
05/24 08:00      0.00      9.42      ----       125     12.65
05/24 09:00      0.00      9.39      ----       122     12.77
05/24 10:00      0.00      9.37      ----       120     13.00
05/24 11:00      0.00      9.33      ----       117     13.24
05/24 12:00      0.00      9.31      ----       115     13.48
05/24 13:00      0.00      9.29      ----       113     13.36
05/24 14:00      0.00      9.26      ----       110     13.30
05/24 15:00      0.00      9.23      ----       108     13.24
05/24 16:00      0.00      9.19      ----       104     13.18
05/24 17:00      0.00      9.18      ----       103     13.24
05/24 18:00      0.00      9.16      ----       102     13.24
05/24 19:00      0.00      9.16      ----       102     13.00
05/24 20:00      0.00      9.14      ----       100     12.77
05/24 21:00      0.00      9.13      ----        99     12.71
05/24 22:00      0.12      9.14      ----       100     12.65
05/24 23:00      ----      ----      ----      ----      ----